sensor_id;sensor_type;location;lat;lon;timestamp;P1;durP1;ratioP1;P2;durP2;ratioP2
5040;SDS011;2539;52.568;13.364;2023-04-24T00:00:31;4.33;;;3.93;;
5040;SDS011;2539;52.568;13.364;2023-04-24T00:02:58;5.23;;;3.87;;
5040;SDS011;2539;52.568;13.364;2023-04-24T00:05:24;5.20;;;4.70;;
5040;SDS011;2539;52.568;13.364;2023-04-24T00:07:54;4.50;;;4.10;;
5040;SDS011;2539;52.568;13.364;2023-04-24T00:10:21;4.83;;;4.43;;
5040;SDS011;2539;52.568;13.364;2023-04-24T00:12:47;5.17;;;4.67;;
5040;SDS011;2539;52.568;13.364;2023-04-24T00:15:13;5.03;;;4.60;;
5040;SDS011;2539;52.568;13.364;2023-04-24T00:17:39;5.30;;;4.80;;
5040;SDS011;2539;52.568;13.364;2023-04-24T00:20:07;4.40;;;4.00;;
5040;SDS011;2539;52.568;13.364;2023-04-24T00:22:35;4.70;;;3.90;;
5040;SDS011;2539;52.568;13.364;2023-04-24T00:25:01;6.80;;;4.57;;
5040;SDS011;2539;52.568;13.364;2023-04-24T00:27:27;5.37;;;4.10;;
5040;SDS011;2539;52.568;13.364;2023-04-24T00:29:52;4.40;;;4.00;;
5040;SDS011;2539;52.568;13.364;2023-04-24T00:32:18;4.70;;;4.20;;
5040;SDS011;2539;52.568;13.364;2023-04-24T00:34:44;5.30;;;4.30;;
5040;SDS011;2539;52.568;13.364;2023-04-24T00:37:09;4.83;;;4.43;;
5040;SDS011;2539;52.568;13.364;2023-04-24T00:39:37;4.70;;;4.30;;
5040;SDS011;2539;52.568;13.364;2023-04-24T00:42:03;4.57;;;4.17;;
5040;SDS011;2539;52.568;13.364;2023-04-24T00:44:32;5.10;;;4.60;;
5040;SDS011;2539;52.568;13.364;2023-04-24T00:47:00;4.93;;;4.50;;
5040;SDS011;2539;52.568;13.364;2023-04-24T00:49:27;5.10;;;4.20;;
5040;SDS011;2539;52.568;13.364;2023-04-24T00:51:53;5.00;;;4.50;;
5040;SDS011;2539;52.568;13.364;2023-04-24T00:54:20;5.43;;;4.87;;
5040;SDS011;2539;52.568;13.364;2023-04-24T00:56:46;5.83;;;4.80;;
5040;SDS011;2539;52.568;13.364;2023-04-24T00:59:12;5.30;;;4.80;;
5040;SDS011;2539;52.568;13.364;2023-04-24T01:01:41;5.90;;;5.03;;
5040;SDS011;2539;52.568;13.364;2023-04-24T01:04:08;4.73;;;4.33;;
5040;SDS011;2539;52.568;13.364;2023-04-24T01:06:37;6.90;;;5.53;;
5040;SDS011;2539;52.568;13.364;2023-04-24T01:09:05;5.60;;;5.10;;
5040;SDS011;2539;52.568;13.364;2023-04-24T01:11:33;5.17;;;4.43;;
5040;SDS011;2539;52.568;13.364;2023-04-24T01:14:00;5.23;;;4.73;;
5040;SDS011;2539;52.568;13.364;2023-04-24T01:16:27;5.37;;;4.87;;
5040;SDS011;2539;52.568;13.364;2023-04-24T01:18:53;4.90;;;4.50;;
5040;SDS011;2539;52.568;13.364;2023-04-24T01:21:19;5.83;;;5.33;;
5040;SDS011;2539;52.568;13.364;2023-04-24T01:23:47;4.87;;;4.40;;
5040;SDS011;2539;52.568;13.364;2023-04-24T01:26:14;5.10;;;4.60;;
5040;SDS011;2539;52.568;13.364;2023-04-24T01:28:41;6.00;;;4.97;;
5040;SDS011;2539;52.568;13.364;2023-04-24T01:31:08;6.20;;;4.30;;
5040;SDS011;2539;52.568;13.364;2023-04-24T01:33:34;6.73;;;5.27;;
5040;SDS011;2539;52.568;13.364;2023-04-24T01:36:01;4.47;;;4.07;;
5040;SDS011;2539;52.568;13.364;2023-04-24T01:38:27;5.10;;;4.60;;
5040;SDS011;2539;52.568;13.364;2023-04-24T01:40:53;4.97;;;4.57;;
5040;SDS011;2539;52.568;13.364;2023-04-24T01:43:20;5.97;;;4.70;;
5040;SDS011;2539;52.568;13.364;2023-04-24T01:45:46;5.63;;;5.03;;
5040;SDS011;2539;52.568;13.364;2023-04-24T01:48:12;4.50;;;4.10;;
5040;SDS011;2539;52.568;13.364;2023-04-24T01:50:39;4.90;;;4.40;;
5040;SDS011;2539;52.568;13.364;2023-04-24T01:53:05;5.47;;;4.47;;
5040;SDS011;2539;52.568;13.364;2023-04-24T01:55:31;5.93;;;5.33;;
5040;SDS011;2539;52.568;13.364;2023-04-24T01:57:58;5.40;;;5.00;;
5040;SDS011;2539;52.568;13.364;2023-04-24T02:00:26;6.13;;;4.73;;
5040;SDS011;2539;52.568;13.364;2023-04-24T02:02:52;5.43;;;4.97;;
5040;SDS011;2539;52.568;13.364;2023-04-24T02:05:19;4.93;;;4.50;;
5040;SDS011;2539;52.568;13.364;2023-04-24T02:07:45;5.00;;;4.37;;
5040;SDS011;2539;52.568;13.364;2023-04-24T02:10:11;4.57;;;4.00;;
5040;SDS011;2539;52.568;13.364;2023-04-24T02:12:38;5.80;;;5.10;;
5040;SDS011;2539;52.568;13.364;2023-04-24T02:15:04;5.20;;;4.73;;
5040;SDS011;2539;52.568;13.364;2023-04-24T02:17:31;5.87;;;5.37;;
5040;SDS011;2539;52.568;13.364;2023-04-24T02:19:57;6.00;;;5.40;;
5040;SDS011;2539;52.568;13.364;2023-04-24T02:22:23;5.73;;;5.20;;
5040;SDS011;2539;52.568;13.364;2023-04-24T02:24:50;5.30;;;4.80;;
5040;SDS011;2539;52.568;13.364;2023-04-24T02:27:16;6.70;;;5.03;;
5040;SDS011;2539;52.568;13.364;2023-04-24T02:29:42;5.40;;;4.90;;
5040;SDS011;2539;52.568;13.364;2023-04-24T02:32:08;6.20;;;5.60;;
5040;SDS011;2539;52.568;13.364;2023-04-24T02:34:37;5.57;;;5.07;;
5040;SDS011;2539;52.568;13.364;2023-04-24T02:37:03;6.13;;;4.93;;
5040;SDS011;2539;52.568;13.364;2023-04-24T02:39:28;5.50;;;5.00;;
5040;SDS011;2539;52.568;13.364;2023-04-24T02:41:55;5.57;;;5.07;;
5040;SDS011;2539;52.568;13.364;2023-04-24T02:44:21;5.57;;;5.10;;
5040;SDS011;2539;52.568;13.364;2023-04-24T02:46:48;5.37;;;4.87;;
5040;SDS011;2539;52.568;13.364;2023-04-24T02:49:14;5.70;;;4.87;;
5040;SDS011;2539;52.568;13.364;2023-04-24T02:51:41;6.27;;;4.87;;
5040;SDS011;2539;52.568;13.364;2023-04-24T02:54:07;6.60;;;5.40;;
5040;SDS011;2539;52.568;13.364;2023-04-24T02:56:35;5.60;;;5.03;;
5040;SDS011;2539;52.568;13.364;2023-04-24T02:59:01;6.03;;;5.43;;
5040;SDS011;2539;52.568;13.364;2023-04-24T03:01:28;6.30;;;5.70;;
5040;SDS011;2539;52.568;13.364;2023-04-24T03:03:55;5.57;;;5.07;;
5040;SDS011;2539;52.568;13.364;2023-04-24T03:06:21;5.70;;;5.17;;
5040;SDS011;2539;52.568;13.364;2023-04-24T03:08:47;6.43;;;5.83;;
5040;SDS011;2539;52.568;13.364;2023-04-24T03:11:14;6.00;;;5.40;;
5040;SDS011;2539;52.568;13.364;2023-04-24T03:13:40;8.00;;;5.03;;
5040;SDS011;2539;52.568;13.364;2023-04-24T03:16:06;6.43;;;5.80;;
5040;SDS011;2539;52.568;13.364;2023-04-24T03:18:32;6.43;;;5.83;;
5040;SDS011;2539;52.568;13.364;2023-04-24T03:20:59;6.73;;;5.57;;
5040;SDS011;2539;52.568;13.364;2023-04-24T03:23:26;6.43;;;5.87;;
5040;SDS011;2539;52.568;13.364;2023-04-24T03:25:52;6.80;;;6.13;;
5040;SDS011;2539;52.568;13.364;2023-04-24T03:28:18;5.93;;;5.37;;
5040;SDS011;2539;52.568;13.364;2023-04-24T03:30:45;5.90;;;5.30;;
5040;SDS011;2539;52.568;13.364;2023-04-24T03:33:11;6.40;;;5.80;;
5040;SDS011;2539;52.568;13.364;2023-04-24T03:35:38;7.50;;;6.13;;
5040;SDS011;2539;52.568;13.364;2023-04-24T03:38:04;8.10;;;5.37;;
5040;SDS011;2539;52.568;13.364;2023-04-24T03:40:30;5.73;;;5.23;;
5040;SDS011;2539;52.568;13.364;2023-04-24T03:42:58;5.70;;;5.20;;
5040;SDS011;2539;52.568;13.364;2023-04-24T03:45:24;7.00;;;6.40;;
5040;SDS011;2539;52.568;13.364;2023-04-24T03:47:49;8.23;;;5.83;;
5040;SDS011;2539;52.568;13.364;2023-04-24T03:50:16;6.00;;;5.50;;
5040;SDS011;2539;52.568;13.364;2023-04-24T03:52:42;6.30;;;5.70;;
5040;SDS011;2539;52.568;13.364;2023-04-24T03:55:08;6.83;;;6.13;;
5040;SDS011;2539;52.568;13.364;2023-04-24T03:57:39;7.03;;;5.60;;
5040;SDS011;2539;52.568;13.364;2023-04-24T04:00:06;5.90;;;5.40;;
5040;SDS011;2539;52.568;13.364;2023-04-24T04:02:32;6.30;;;5.70;;
5040;SDS011;2539;52.568;13.364;2023-04-24T04:04:57;5.93;;;5.33;;
5040;SDS011;2539;52.568;13.364;2023-04-24T04:07:23;6.77;;;6.17;;
5040;SDS011;2539;52.568;13.364;2023-04-24T04:09:49;5.63;;;5.13;;
5040;SDS011;2539;52.568;13.364;2023-04-24T04:12:15;6.93;;;5.33;;
5040;SDS011;2539;52.568;13.364;2023-04-24T04:14:42;6.23;;;5.63;;
5040;SDS011;2539;52.568;13.364;2023-04-24T04:17:08;7.20;;;6.50;;
5040;SDS011;2539;52.568;13.364;2023-04-24T04:19:34;8.83;;;6.33;;
5040;SDS011;2539;52.568;13.364;2023-04-24T04:22:01;6.40;;;5.17;;
5040;SDS011;2539;52.568;13.364;2023-04-24T04:24:27;7.07;;;5.63;;
5040;SDS011;2539;52.568;13.364;2023-04-24T04:26:54;6.47;;;5.37;;
5040;SDS011;2539;52.568;13.364;2023-04-24T04:29:22;5.80;;;5.20;;
5040;SDS011;2539;52.568;13.364;2023-04-24T04:31:49;6.60;;;5.13;;
5040;SDS011;2539;52.568;13.364;2023-04-24T04:34:16;6.73;;;5.20;;
5040;SDS011;2539;52.568;13.364;2023-04-24T04:36:42;7.03;;;4.87;;
5040;SDS011;2539;52.568;13.364;2023-04-24T04:39:09;5.80;;;5.20;;
5040;SDS011;2539;52.568;13.364;2023-04-24T04:41:35;6.03;;;5.43;;
5040;SDS011;2539;52.568;13.364;2023-04-24T04:44:01;6.13;;;4.70;;
5040;SDS011;2539;52.568;13.364;2023-04-24T04:46:30;7.50;;;4.67;;
5040;SDS011;2539;52.568;13.364;2023-04-24T04:48:59;5.93;;;4.93;;
5040;SDS011;2539;52.568;13.364;2023-04-24T04:51:27;4.50;;;4.10;;
5040;SDS011;2539;52.568;13.364;2023-04-24T04:53:53;4.30;;;3.90;;
5040;SDS011;2539;52.568;13.364;2023-04-24T04:56:19;4.40;;;4.00;;
5040;SDS011;2539;52.568;13.364;2023-04-24T04:58:46;6.13;;;4.77;;
5040;SDS011;2539;52.568;13.364;2023-04-24T05:01:11;5.10;;;4.60;;
5040;SDS011;2539;52.568;13.364;2023-04-24T05:03:37;7.07;;;5.27;;
5040;SDS011;2539;52.568;13.364;2023-04-24T05:06:03;5.10;;;4.60;;
5040;SDS011;2539;52.568;13.364;2023-04-24T05:08:29;5.60;;;4.07;;
5040;SDS011;2539;52.568;13.364;2023-04-24T05:10:55;10.03;;;4.10;;
5040;SDS011;2539;52.568;13.364;2023-04-24T05:13:21;4.13;;;3.83;;
5040;SDS011;2539;52.568;13.364;2023-04-24T05:15:48;5.60;;;4.60;;
5040;SDS011;2539;52.568;13.364;2023-04-24T05:18:14;5.20;;;3.63;;
5040;SDS011;2539;52.568;13.364;2023-04-24T05:20:41;4.93;;;4.17;;
5040;SDS011;2539;52.568;13.364;2023-04-24T05:23:09;5.30;;;4.53;;
5040;SDS011;2539;52.568;13.364;2023-04-24T05:25:35;4.47;;;3.80;;
5040;SDS011;2539;52.568;13.364;2023-04-24T05:28:02;6.53;;;5.93;;
5040;SDS011;2539;52.568;13.364;2023-04-24T05:30:28;3.90;;;3.60;;
5040;SDS011;2539;52.568;13.364;2023-04-24T05:32:55;4.20;;;3.80;;
5040;SDS011;2539;52.568;13.364;2023-04-24T05:35:21;6.13;;;4.00;;
5040;SDS011;2539;52.568;13.364;2023-04-24T05:37:47;4.77;;;3.87;;
5040;SDS011;2539;52.568;13.364;2023-04-24T05:40:14;5.50;;;4.07;;
5040;SDS011;2539;52.568;13.364;2023-04-24T05:42:40;4.40;;;4.00;;
5040;SDS011;2539;52.568;13.364;2023-04-24T05:45:06;4.30;;;3.57;;
5040;SDS011;2539;52.568;13.364;2023-04-24T05:47:32;6.00;;;4.43;;
5040;SDS011;2539;52.568;13.364;2023-04-24T05:49:58;4.23;;;3.67;;
5040;SDS011;2539;52.568;13.364;2023-04-24T05:52:24;3.87;;;3.20;;
5040;SDS011;2539;52.568;13.364;2023-04-24T05:54:50;4.20;;;3.37;;
5040;SDS011;2539;52.568;13.364;2023-04-24T05:57:17;4.70;;;3.23;;
5040;SDS011;2539;52.568;13.364;2023-04-24T05:59:42;4.73;;;3.53;;
5040;SDS011;2539;52.568;13.364;2023-04-24T06:02:08;5.80;;;3.53;;
5040;SDS011;2539;52.568;13.364;2023-04-24T06:04:34;3.97;;;3.50;;
5040;SDS011;2539;52.568;13.364;2023-04-24T06:06:59;4.07;;;3.27;;
5040;SDS011;2539;52.568;13.364;2023-04-24T06:09:26;3.90;;;3.50;;
5040;SDS011;2539;52.568;13.364;2023-04-24T06:11:52;5.57;;;3.30;;
5040;SDS011;2539;52.568;13.364;2023-04-24T06:14:19;3.70;;;3.00;;
5040;SDS011;2539;52.568;13.364;2023-04-24T06:16:46;3.23;;;2.93;;
5040;SDS011;2539;52.568;13.364;2023-04-24T06:19:12;5.00;;;2.37;;
5040;SDS011;2539;52.568;13.364;2023-04-24T06:21:38;3.67;;;3.27;;
5040;SDS011;2539;52.568;13.364;2023-04-24T06:24:05;3.00;;;2.50;;
5040;SDS011;2539;52.568;13.364;2023-04-24T06:26:31;3.10;;;2.77;;
5040;SDS011;2539;52.568;13.364;2023-04-24T06:28:57;6.33;;;2.50;;
5040;SDS011;2539;52.568;13.364;2023-04-24T06:31:25;2.37;;;2.03;;
5040;SDS011;2539;52.568;13.364;2023-04-24T06:33:51;3.03;;;2.27;;
5040;SDS011;2539;52.568;13.364;2023-04-24T06:36:17;3.70;;;2.20;;
5040;SDS011;2539;52.568;13.364;2023-04-24T06:38:44;2.43;;;2.23;;
5040;SDS011;2539;52.568;13.364;2023-04-24T06:41:10;6.03;;;2.60;;
5040;SDS011;2539;52.568;13.364;2023-04-24T06:43:37;2.93;;;1.87;;
5040;SDS011;2539;52.568;13.364;2023-04-24T06:46:03;5.87;;;2.63;;
5040;SDS011;2539;52.568;13.364;2023-04-24T06:48:29;2.60;;;2.03;;
5040;SDS011;2539;52.568;13.364;2023-04-24T06:50:56;2.13;;;1.77;;
5040;SDS011;2539;52.568;13.364;2023-04-24T06:53:22;3.03;;;1.90;;
5040;SDS011;2539;52.568;13.364;2023-04-24T06:55:49;2.30;;;1.77;;
5040;SDS011;2539;52.568;13.364;2023-04-24T06:58:16;2.67;;;1.90;;
5040;SDS011;2539;52.568;13.364;2023-04-24T07:00:42;4.43;;;1.80;;
5040;SDS011;2539;52.568;13.364;2023-04-24T07:03:08;3.57;;;1.93;;
5040;SDS011;2539;52.568;13.364;2023-04-24T07:05:35;3.20;;;2.30;;
5040;SDS011;2539;52.568;13.364;2023-04-24T07:08:02;4.07;;;2.03;;
5040;SDS011;2539;52.568;13.364;2023-04-24T07:10:29;2.30;;;1.73;;
5040;SDS011;2539;52.568;13.364;2023-04-24T07:12:56;2.03;;;1.60;;
5040;SDS011;2539;52.568;13.364;2023-04-24T07:15:22;1.90;;;1.50;;
5040;SDS011;2539;52.568;13.364;2023-04-24T07:17:49;1.97;;;1.77;;
5040;SDS011;2539;52.568;13.364;2023-04-24T07:20:16;2.03;;;1.40;;
5040;SDS011;2539;52.568;13.364;2023-04-24T07:22:42;2.17;;;1.40;;
5040;SDS011;2539;52.568;13.364;2023-04-24T07:25:09;3.60;;;1.40;;
5040;SDS011;2539;52.568;13.364;2023-04-24T07:27:35;3.53;;;1.77;;
5040;SDS011;2539;52.568;13.364;2023-04-24T07:30:02;2.77;;;2.07;;
5040;SDS011;2539;52.568;13.364;2023-04-24T07:32:29;3.83;;;1.40;;
5040;SDS011;2539;52.568;13.364;2023-04-24T07:34:56;2.10;;;1.33;;
5040;SDS011;2539;52.568;13.364;2023-04-24T07:37:22;2.07;;;1.70;;
5040;SDS011;2539;52.568;13.364;2023-04-24T07:39:49;2.90;;;1.40;;
5040;SDS011;2539;52.568;13.364;2023-04-24T07:42:16;1.90;;;1.40;;
5040;SDS011;2539;52.568;13.364;2023-04-24T07:44:42;3.70;;;1.57;;
5040;SDS011;2539;52.568;13.364;2023-04-24T07:47:08;1.83;;;1.37;;
5040;SDS011;2539;52.568;13.364;2023-04-24T07:49:35;3.50;;;2.20;;
5040;SDS011;2539;52.568;13.364;2023-04-24T07:52:01;2.43;;;1.40;;
5040;SDS011;2539;52.568;13.364;2023-04-24T07:54:29;2.27;;;1.20;;
5040;SDS011;2539;52.568;13.364;2023-04-24T07:56:54;3.30;;;1.10;;
5040;SDS011;2539;52.568;13.364;2023-04-24T07:59:20;1.67;;;1.13;;
5040;SDS011;2539;52.568;13.364;2023-04-24T08:01:46;1.70;;;1.10;;
5040;SDS011;2539;52.568;13.364;2023-04-24T08:04:11;1.50;;;1.00;;
5040;SDS011;2539;52.568;13.364;2023-04-24T08:06:38;1.60;;;1.10;;
5040;SDS011;2539;52.568;13.364;2023-04-24T08:09:04;1.70;;;1.10;;
5040;SDS011;2539;52.568;13.364;2023-04-24T08:11:30;2.57;;;1.40;;
5040;SDS011;2539;52.568;13.364;2023-04-24T08:13:57;1.60;;;1.10;;
5040;SDS011;2539;52.568;13.364;2023-04-24T08:16:24;1.70;;;1.20;;
5040;SDS011;2539;52.568;13.364;2023-04-24T08:18:50;1.50;;;1.00;;
5040;SDS011;2539;52.568;13.364;2023-04-24T08:21:17;2.13;;;1.30;;
5040;SDS011;2539;52.568;13.364;2023-04-24T08:23:44;2.60;;;1.67;;
5040;SDS011;2539;52.568;13.364;2023-04-24T08:26:10;2.00;;;1.10;;
5040;SDS011;2539;52.568;13.364;2023-04-24T08:28:36;1.80;;;1.27;;
5040;SDS011;2539;52.568;13.364;2023-04-24T08:31:02;2.10;;;1.60;;
5040;SDS011;2539;52.568;13.364;2023-04-24T08:33:28;2.13;;;1.10;;
5040;SDS011;2539;52.568;13.364;2023-04-24T08:36:01;2.60;;;1.87;;
5040;SDS011;2539;52.568;13.364;2023-04-24T08:38:31;5.13;;;1.97;;
5040;SDS011;2539;52.568;13.364;2023-04-24T08:41:00;2.00;;;1.30;;
5040;SDS011;2539;52.568;13.364;2023-04-24T08:43:26;1.63;;;1.20;;
5040;SDS011;2539;52.568;13.364;2023-04-24T08:45:53;1.93;;;1.37;;
5040;SDS011;2539;52.568;13.364;2023-04-24T08:48:22;2.70;;;1.20;;
5040;SDS011;2539;52.568;13.364;2023-04-24T08:50:50;2.63;;;1.20;;
5040;SDS011;2539;52.568;13.364;2023-04-24T08:53:17;2.67;;;1.20;;
5040;SDS011;2539;52.568;13.364;2023-04-24T08:55:45;1.90;;;1.30;;
5040;SDS011;2539;52.568;13.364;2023-04-24T08:58:15;1.80;;;1.23;;
5040;SDS011;2539;52.568;13.364;2023-04-24T09:00:42;5.60;;;1.20;;
5040;SDS011;2539;52.568;13.364;2023-04-24T09:03:15;1.70;;;1.13;;
5040;SDS011;2539;52.568;13.364;2023-04-24T09:05:42;1.83;;;1.00;;
5040;SDS011;2539;52.568;13.364;2023-04-24T09:08:13;1.80;;;1.13;;
5040;SDS011;2539;52.568;13.364;2023-04-24T09:10:40;2.10;;;1.50;;
5040;SDS011;2539;52.568;13.364;2023-04-24T09:13:06;3.07;;;1.17;;
5040;SDS011;2539;52.568;13.364;2023-04-24T09:15:36;2.10;;;1.43;;
5040;SDS011;2539;52.568;13.364;2023-04-24T09:18:06;2.90;;;1.40;;
5040;SDS011;2539;52.568;13.364;2023-04-24T09:20:33;1.53;;;1.00;;
5040;SDS011;2539;52.568;13.364;2023-04-24T09:23:01;1.70;;;1.10;;
5040;SDS011;2539;52.568;13.364;2023-04-24T09:25:31;6.03;;;1.10;;
5040;SDS011;2539;52.568;13.364;2023-04-24T09:28:02;4.13;;;1.30;;
5040;SDS011;2539;52.568;13.364;2023-04-24T09:30:30;2.13;;;1.23;;
5040;SDS011;2539;52.568;13.364;2023-04-24T09:33:09;3.97;;;1.60;;
5040;SDS011;2539;52.568;13.364;2023-04-24T09:35:50;2.17;;;1.20;;
5040;SDS011;2539;52.568;13.364;2023-04-24T09:38:17;3.80;;;1.20;;
5040;SDS011;2539;52.568;13.364;2023-04-24T09:40:44;2.80;;;2.50;;
5040;SDS011;2539;52.568;13.364;2023-04-24T09:43:10;5.30;;;3.50;;
5040;SDS011;2539;52.568;13.364;2023-04-24T09:45:37;2.57;;;1.93;;
5040;SDS011;2539;52.568;13.364;2023-04-24T09:48:05;2.10;;;1.47;;
5040;SDS011;2539;52.568;13.364;2023-04-24T09:50:34;2.03;;;1.40;;
5040;SDS011;2539;52.568;13.364;2023-04-24T09:53:02;3.27;;;1.60;;
5040;SDS011;2539;52.568;13.364;2023-04-24T09:55:29;2.27;;;1.37;;
5040;SDS011;2539;52.568;13.364;2023-04-24T09:57:57;2.33;;;1.40;;
5040;SDS011;2539;52.568;13.364;2023-04-24T10:00:31;4.37;;;3.30;;
5040;SDS011;2539;52.568;13.364;2023-04-24T10:02:59;2.23;;;1.60;;
5040;SDS011;2539;52.568;13.364;2023-04-24T10:05:31;2.63;;;1.30;;
5040;SDS011;2539;52.568;13.364;2023-04-24T10:08:02;1.93;;;1.37;;
5040;SDS011;2539;52.568;13.364;2023-04-24T10:10:31;2.60;;;1.73;;
5040;SDS011;2539;52.568;13.364;2023-04-24T10:12:58;1.90;;;1.20;;
5040;SDS011;2539;52.568;13.364;2023-04-24T10:15:26;4.07;;;2.10;;
5040;SDS011;2539;52.568;13.364;2023-04-24T10:17:53;2.20;;;1.50;;
5040;SDS011;2539;52.568;13.364;2023-04-24T10:20:20;3.30;;;1.63;;
5040;SDS011;2539;52.568;13.364;2023-04-24T10:22:48;2.63;;;1.10;;
5040;SDS011;2539;52.568;13.364;2023-04-24T10:25:16;2.53;;;1.20;;
5040;SDS011;2539;52.568;13.364;2023-04-24T10:27:46;2.30;;;1.10;;
5040;SDS011;2539;52.568;13.364;2023-04-24T10:30:14;2.30;;;1.53;;
5040;SDS011;2539;52.568;13.364;2023-04-24T10:32:40;1.90;;;1.30;;
5040;SDS011;2539;52.568;13.364;2023-04-24T10:35:07;2.37;;;1.30;;
5040;SDS011;2539;52.568;13.364;2023-04-24T10:37:35;2.23;;;1.27;;
5040;SDS011;2539;52.568;13.364;2023-04-24T10:40:04;2.57;;;1.43;;
5040;SDS011;2539;52.568;13.364;2023-04-24T10:42:33;2.10;;;1.50;;
5040;SDS011;2539;52.568;13.364;2023-04-24T10:45:06;1.73;;;1.33;;
5040;SDS011;2539;52.568;13.364;2023-04-24T10:47:50;2.37;;;1.50;;
5040;SDS011;2539;52.568;13.364;2023-04-24T10:50:28;2.97;;;1.30;;
5040;SDS011;2539;52.568;13.364;2023-04-24T10:53:12;2.00;;;1.30;;
5040;SDS011;2539;52.568;13.364;2023-04-24T10:55:44;3.73;;;1.30;;
5040;SDS011;2539;52.568;13.364;2023-04-24T10:58:12;2.57;;;1.80;;
5040;SDS011;2539;52.568;13.364;2023-04-24T11:00:39;4.83;;;1.93;;
5040;SDS011;2539;52.568;13.364;2023-04-24T11:03:07;2.27;;;1.30;;
5040;SDS011;2539;52.568;13.364;2023-04-24T11:05:58;2.33;;;1.57;;
5040;SDS011;2539;52.568;13.364;2023-04-24T11:08:51;3.07;;;1.80;;
5040;SDS011;2539;52.568;13.364;2023-04-24T11:11:17;3.20;;;1.27;;
5040;SDS011;2539;52.568;13.364;2023-04-24T11:16:28;2.33;;;1.10;;
5040;SDS011;2539;52.568;13.364;2023-04-24T11:21:40;4.37;;;1.70;;
5040;SDS011;2539;52.568;13.364;2023-04-24T11:26:55;2.00;;;1.17;;
5040;SDS011;2539;52.568;13.364;2023-04-24T11:29:37;2.20;;;1.53;;
5040;SDS011;2539;52.568;13.364;2023-04-24T11:32:28;1.60;;;0.97;;
5040;SDS011;2539;52.568;13.364;2023-04-24T11:34:59;1.63;;;1.07;;
5040;SDS011;2539;52.568;13.364;2023-04-24T11:37:27;2.30;;;1.23;;
5040;SDS011;2539;52.568;13.364;2023-04-24T11:39:58;11.27;;;1.70;;
5040;SDS011;2539;52.568;13.364;2023-04-24T11:42:25;5.00;;;1.90;;
5040;SDS011;2539;52.568;13.364;2023-04-24T11:44:52;3.33;;;1.30;;
5040;SDS011;2539;52.568;13.364;2023-04-24T11:47:27;7.90;;;2.07;;
5040;SDS011;2539;52.568;13.364;2023-04-24T11:49:55;3.63;;;2.30;;
5040;SDS011;2539;52.568;13.364;2023-04-24T11:52:21;3.30;;;1.70;;
5040;SDS011;2539;52.568;13.364;2023-04-24T11:54:48;4.17;;;1.87;;
5040;SDS011;2539;52.568;13.364;2023-04-24T11:57:16;6.30;;;1.90;;
5040;SDS011;2539;52.568;13.364;2023-04-24T11:59:44;2.80;;;2.00;;
5040;SDS011;2539;52.568;13.364;2023-04-24T12:02:19;3.73;;;2.03;;
5040;SDS011;2539;52.568;13.364;2023-04-24T12:04:53;2.40;;;1.50;;
5040;SDS011;2539;52.568;13.364;2023-04-24T12:07:20;3.40;;;1.70;;
5040;SDS011;2539;52.568;13.364;2023-04-24T12:09:47;5.83;;;2.53;;
5040;SDS011;2539;52.568;13.364;2023-04-24T12:12:28;5.03;;;2.80;;
5040;SDS011;2539;52.568;13.364;2023-04-24T12:14:55;2.40;;;1.87;;
5040;SDS011;2539;52.568;13.364;2023-04-24T12:17:26;2.10;;;1.63;;
5040;SDS011;2539;52.568;13.364;2023-04-24T12:19:58;7.63;;;1.80;;
5040;SDS011;2539;52.568;13.364;2023-04-24T12:22:28;2.70;;;1.60;;
5040;SDS011;2539;52.568;13.364;2023-04-24T12:25:11;5.70;;;2.30;;
5040;SDS011;2539;52.568;13.364;2023-04-24T12:27:38;2.50;;;1.80;;
5040;SDS011;2539;52.568;13.364;2023-04-24T12:30:05;3.87;;;2.17;;
5040;SDS011;2539;52.568;13.364;2023-04-24T12:32:40;2.27;;;1.60;;
5040;SDS011;2539;52.568;13.364;2023-04-24T12:35:11;3.37;;;1.50;;
5040;SDS011;2539;52.568;13.364;2023-04-24T12:37:37;2.20;;;1.50;;
5040;SDS011;2539;52.568;13.364;2023-04-24T12:42:36;3.70;;;2.10;;
5040;SDS011;2539;52.568;13.364;2023-04-24T12:45:11;6.77;;;1.57;;
5040;SDS011;2539;52.568;13.364;2023-04-24T12:47:39;2.47;;;1.30;;
5040;SDS011;2539;52.568;13.364;2023-04-24T12:50:07;3.40;;;1.20;;
5040;SDS011;2539;52.568;13.364;2023-04-24T12:52:34;4.07;;;1.40;;
5040;SDS011;2539;52.568;13.364;2023-04-24T12:55:01;2.47;;;1.60;;
5040;SDS011;2539;52.568;13.364;2023-04-24T12:57:28;1.90;;;1.20;;
5040;SDS011;2539;52.568;13.364;2023-04-24T12:59:55;2.77;;;1.50;;
5040;SDS011;2539;52.568;13.364;2023-04-24T13:02:24;14.27;;;1.30;;
5040;SDS011;2539;52.568;13.364;2023-04-24T13:04:52;1.83;;;1.20;;
5040;SDS011;2539;52.568;13.364;2023-04-24T13:07:19;1.70;;;1.10;;
5040;SDS011;2539;52.568;13.364;2023-04-24T13:09:47;6.10;;;1.30;;
5040;SDS011;2539;52.568;13.364;2023-04-24T13:12:14;5.80;;;1.60;;
5040;SDS011;2539;52.568;13.364;2023-04-24T13:14:40;3.10;;;2.00;;
5040;SDS011;2539;52.568;13.364;2023-04-24T13:17:07;5.73;;;2.00;;
5040;SDS011;2539;52.568;13.364;2023-04-24T13:19:36;3.40;;;2.07;;
5040;SDS011;2539;52.568;13.364;2023-04-24T13:22:03;2.20;;;1.30;;
5040;SDS011;2539;52.568;13.364;2023-04-24T13:24:30;1.70;;;1.20;;
5040;SDS011;2539;52.568;13.364;2023-04-24T13:26:57;1.70;;;1.20;;
5040;SDS011;2539;52.568;13.364;2023-04-24T13:29:24;12.30;;;8.27;;
5040;SDS011;2539;52.568;13.364;2023-04-24T13:31:51;8.53;;;6.10;;
5040;SDS011;2539;52.568;13.364;2023-04-24T13:34:20;10.47;;;5.43;;
5040;SDS011;2539;52.568;13.364;2023-04-24T13:36:47;8.37;;;5.10;;
5040;SDS011;2539;52.568;13.364;2023-04-24T13:39:13;3.57;;;2.43;;
5040;SDS011;2539;52.568;13.364;2023-04-24T13:41:39;3.07;;;1.63;;
5040;SDS011;2539;52.568;13.364;2023-04-24T13:44:06;6.33;;;1.70;;
5040;SDS011;2539;52.568;13.364;2023-04-24T13:46:32;3.90;;;1.87;;
5040;SDS011;2539;52.568;13.364;2023-04-24T13:48:58;3.10;;;2.20;;
5040;SDS011;2539;52.568;13.364;2023-04-24T13:51:25;3.93;;;1.70;;
5040;SDS011;2539;52.568;13.364;2023-04-24T13:53:54;2.93;;;1.80;;
5040;SDS011;2539;52.568;13.364;2023-04-24T13:56:21;3.50;;;2.57;;
5040;SDS011;2539;52.568;13.364;2023-04-24T13:58:48;4.30;;;3.47;;
5040;SDS011;2539;52.568;13.364;2023-04-24T14:01:14;3.37;;;2.50;;
5040;SDS011;2539;52.568;13.364;2023-04-24T14:03:41;2.60;;;1.57;;
5040;SDS011;2539;52.568;13.364;2023-04-24T14:06:11;2.30;;;1.40;;
5040;SDS011;2539;52.568;13.364;2023-04-24T14:08:37;6.07;;;4.00;;
5040;SDS011;2539;52.568;13.364;2023-04-24T14:11:03;2.00;;;1.40;;
5040;SDS011;2539;52.568;13.364;2023-04-24T14:13:30;3.80;;;2.20;;
5040;SDS011;2539;52.568;13.364;2023-04-24T14:15:56;2.60;;;1.30;;
5040;SDS011;2539;52.568;13.364;2023-04-24T14:18:23;1.93;;;1.30;;
5040;SDS011;2539;52.568;13.364;2023-04-24T14:20:49;2.50;;;1.70;;
5040;SDS011;2539;52.568;13.364;2023-04-24T14:23:16;1.80;;;1.30;;
5040;SDS011;2539;52.568;13.364;2023-04-24T14:25:42;2.53;;;1.33;;
5040;SDS011;2539;52.568;13.364;2023-04-24T14:28:08;1.70;;;1.10;;
5040;SDS011;2539;52.568;13.364;2023-04-24T14:30:35;1.93;;;1.17;;
5040;SDS011;2539;52.568;13.364;2023-04-24T14:33:03;1.80;;;1.27;;
5040;SDS011;2539;52.568;13.364;2023-04-24T14:35:29;2.00;;;1.07;;
5040;SDS011;2539;52.568;13.364;2023-04-24T14:37:58;1.80;;;1.20;;
5040;SDS011;2539;52.568;13.364;2023-04-24T14:40:25;1.67;;;1.07;;
5040;SDS011;2539;52.568;13.364;2023-04-24T14:42:51;2.33;;;1.20;;
5040;SDS011;2539;52.568;13.364;2023-04-24T14:45:18;1.97;;;1.30;;
5040;SDS011;2539;52.568;13.364;2023-04-24T14:47:45;1.73;;;1.20;;
5040;SDS011;2539;52.568;13.364;2023-04-24T14:50:11;2.27;;;1.47;;
5040;SDS011;2539;52.568;13.364;2023-04-24T14:52:38;1.80;;;1.37;;
5040;SDS011;2539;52.568;13.364;2023-04-24T14:55:05;2.13;;;1.40;;
5040;SDS011;2539;52.568;13.364;2023-04-24T14:57:33;3.50;;;1.27;;
5040;SDS011;2539;52.568;13.364;2023-04-24T15:00:00;2.00;;;1.50;;
5040;SDS011;2539;52.568;13.364;2023-04-24T15:02:26;2.07;;;1.50;;
5040;SDS011;2539;52.568;13.364;2023-04-24T15:04:52;2.37;;;2.17;;
5040;SDS011;2539;52.568;13.364;2023-04-24T15:07:19;4.10;;;2.00;;
5040;SDS011;2539;52.568;13.364;2023-04-24T15:09:45;2.80;;;2.03;;
5040;SDS011;2539;52.568;13.364;2023-04-24T15:12:12;2.20;;;1.40;;